Search
Air Show Slide
Air Show Slide
Search

Aerodrome Weather

LMML - Malta International Airport

3 March, 6:45 AM
23 minutes ago
VFR
Flight Category
1015
Air Pressure
170°/5kts
Wind Speed
15°C
Temperature
12°C
Dew Point
9.7 km
Visibility
LMML 030645Z 17005KT 9999 FEW013 15/12 Q1015 NOSIG

ATIS - 127.00MHz

Runway Winds

kt 0 5 10 20 30 40 60
23

3 kt Headwind

4 kt Left Crosswind

05

3 kt Tailwind

4 kt Right Crosswind

13

4 kt Headwind

3 kt Right Crosswind

31

4 kt Tailwind

3 kt Left Crosswind

Civil Twilight Times

Sunrise (GMT)

Night End
Sunrise

Sunset (GMT)

Sunset
Night Start

Density Altitude

Density Alt: 318ft (MSL)
LMML: 297ft (MSL)
21ft
Temperature: 15°C
QNH: 1015hPa

Aerodrome Weather

LICB - Comiso Airport

3 March, 6:50 AM
18 minutes ago
VFR
Flight Category
1015
Air Pressure
90°/3kts
Wind Speed
12°C
Temperature
11°C
Dew Point
9.7 km
Visibility
LICB 030650Z 09003KT CAVOK 12/11 Q1015

Runway Winds

kt 0 5 10 20 30 40 60
23

2 kt Tailwind

2 kt Left Crosswind

05

2 kt Headwind

2 kt Right Crosswind

Civil Twilight Times

Sunrise (GMT)

Night End
Sunrise

Sunset (GMT)

Sunset
Night Start

Density Altitude

Density Alt: 417ft (MSL)
LICB: 756ft (MSL)
-339ft
Temperature: 12°C
QNH: 1015hPa

Aerodrome Weather

LICC - Catania-Fontanarossa Airport

3 March, 6:50 AM
18 minutes ago
VFR
Flight Category
1015
Air Pressure
200°/7kts
Wind Speed
9°C
Temperature
7°C
Dew Point
9.7 km
Visibility
LICC 030650Z 20007KT CAVOK 09/07 Q1015

Runway Winds

kt 0 5 10 20 30 40 60
08

4 kt Tailwind

6 kt Right Crosswind

26

4 kt Headwind

6 kt Left Crosswind

Civil Twilight Times

Sunrise (GMT)

Night End
Sunrise

Sunset (GMT)

Sunset
Night Start

Density Altitude

Density Alt: -660ft (MSL)
LICC: 39ft (MSL)
-699ft
Temperature: 9°C
QNH: 1015hPa

Aerodrome Weather

LICR - Reggio Calabria Airport

3 March, 6:50 AM
18 minutes ago
VFR
Flight Category
1015
Air Pressure
120°/4kts
Wind Speed
12°C
Temperature
7°C
Dew Point
9.7 km
Visibility
LICR 030650Z AUTO 12004KT 9999 // NCD 12/07 Q1015

Runway Winds

kt 0 5 10 20 30 40 60
15

3 kt Headwind

2 kt Left Crosswind

33

3 kt Tailwind

2 kt Right Crosswind

11

4 kt Headwind

1 kt Right Crosswind

29

4 kt Tailwind

1 kt Left Crosswind

Civil Twilight Times

Sunrise (GMT)

Night End
Sunrise

Sunset (GMT)

Sunset
Night Start

Density Altitude

Density Alt: -243ft (MSL)
LICR: 96ft (MSL)
-339ft
Temperature: 12°C
QNH: 1015hPa

Flying Malta App V3

Welcome to the Flying Malta App, a web-app dedicated to providing useful information for pilots and aviation enthusiasts both for Malta and it’s neighboring countries.. Whether you’re a local pilot, visiting from abroad, or just interested in learning more about aviation in Malta, Flying Malta App offers a variety of resources and tools to help you navigate the skies safely and efficiently. From the latest weather updates and airspace information to airport details and flight planning tools, we’ve got you covered. So take a look around and discover all that Flying Malta App has to offer.